sensor_id;sensor_type;location;lat;lon;timestamp;pressure;altitude;pressure_sealevel;temperature;humidity
50368;BME280;36281;34.132;-118.018;2023-02-12T00:01:51;99674.25;;;17.30;42.10
50368;BME280;36281;34.132;-118.018;2023-02-12T00:04:20;99676.06;;;17.25;42.46
50368;BME280;36281;34.132;-118.018;2023-02-12T00:06:50;99680.59;;;17.19;42.41
50368;BME280;36281;34.132;-118.018;2023-02-12T00:09:19;99686.47;;;17.16;42.43
50368;BME280;36281;34.132;-118.018;2023-02-12T00:11:48;99686.44;;;17.11;42.11
50368;BME280;36281;34.132;-118.018;2023-02-12T00:14:17;99685.59;;;17.05;42.04
50368;BME280;36281;34.132;-118.018;2023-02-12T00:16:46;99686.94;;;17.03;42.14
50368;BME280;36281;34.132;-118.018;2023-02-12T00:19:15;99691.44;;;16.97;42.00
50368;BME280;36281;34.132;-118.018;2023-02-12T00:21:44;99696.19;;;16.90;41.84
50368;BME280;36281;34.132;-118.018;2023-02-12T00:24:15;99694.53;;;16.84;41.74
50368;BME280;36281;34.132;-118.018;2023-02-12T00:26:44;99700.66;;;16.79;42.06
50368;BME280;36281;34.132;-118.018;2023-02-12T00:29:15;99691.47;;;16.70;41.63
50368;BME280;36281;34.132;-118.018;2023-02-12T00:31:45;99702.88;;;16.61;41.81
50368;BME280;36281;34.132;-118.018;2023-02-12T00:34:14;99704.72;;;16.55;41.84
50368;BME280;36281;34.132;-118.018;2023-02-12T00:36:43;99706.81;;;16.48;41.88
50368;BME280;36281;34.132;-118.018;2023-02-12T00:39:14;99708.63;;;16.42;41.97
50368;BME280;36281;34.132;-118.018;2023-02-12T00:41:43;99711.00;;;16.39;41.78
50368;BME280;36281;34.132;-118.018;2023-02-12T00:44:12;99710.47;;;16.37;41.83
50368;BME280;36281;34.132;-118.018;2023-02-12T00:46:41;99711.72;;;16.29;41.51
50368;BME280;36281;34.132;-118.018;2023-02-12T00:49:10;99703.66;;;16.24;41.67
50368;BME280;36281;34.132;-118.018;2023-02-12T00:51:39;99713.16;;;16.15;41.93
50368;BME280;36281;34.132;-118.018;2023-02-12T00:54:08;99713.31;;;16.03;42.31
50368;BME280;36281;34.132;-118.018;2023-02-12T00:56:39;99718.63;;;15.98;42.77
50368;BME280;36281;34.132;-118.018;2023-02-12T00:59:08;99724.97;;;15.92;42.98
50368;BME280;36281;34.132;-118.018;2023-02-12T01:01:37;99726.19;;;15.84;43.12
50368;BME280;36281;34.132;-118.018;2023-02-12T01:04:06;99734.63;;;15.76;43.33
50368;BME280;36281;34.132;-118.018;2023-02-12T01:06:35;99739.84;;;15.66;43.25
50368;BME280;36281;34.132;-118.018;2023-02-12T01:09:04;99734.66;;;15.59;43.01
50368;BME280;36281;34.132;-118.018;2023-02-12T01:11:33;99738.59;;;15.51;43.15
50368;BME280;36281;34.132;-118.018;2023-02-12T01:14:04;99743.28;;;15.44;42.93
50368;BME280;36281;34.132;-118.018;2023-02-12T01:16:35;99739.94;;;15.32;42.30
50368;BME280;36281;34.132;-118.018;2023-02-12T01:19:04;99745.94;;;15.22;41.96
50368;BME280;36281;34.132;-118.018;2023-02-12T01:21:34;99751.41;;;15.16;42.47
50368;BME280;36281;34.132;-118.018;2023-02-12T01:24:03;99760.06;;;15.06;42.31
50368;BME280;36281;34.132;-118.018;2023-02-12T01:26:32;99750.63;;;14.98;42.92
50368;BME280;36281;34.132;-118.018;2023-02-12T01:29:04;99760.63;;;14.91;43.41
50368;BME280;36281;34.132;-118.018;2023-02-12T01:31:36;99760.47;;;14.81;43.74
50368;BME280;36281;34.132;-118.018;2023-02-12T01:34:07;99775.28;;;14.72;44.05
50368;BME280;36281;34.132;-118.018;2023-02-12T01:36:38;99779.13;;;14.64;43.97
50368;BME280;36281;34.132;-118.018;2023-02-12T01:39:09;99777.19;;;14.60;44.57
50368;BME280;36281;34.132;-118.018;2023-02-12T01:41:40;99778.16;;;14.54;43.89
50368;BME280;36281;34.132;-118.018;2023-02-12T01:44:17;99777.00;;;14.50;43.68
50368;BME280;36281;34.132;-118.018;2023-02-12T01:46:47;99788.81;;;14.42;43.48
50368;BME280;36281;34.132;-118.018;2023-02-12T01:49:21;99791.38;;;14.37;43.63
50368;BME280;36281;34.132;-118.018;2023-02-12T01:51:54;99797.44;;;14.32;44.35
50368;BME280;36281;34.132;-118.018;2023-02-12T01:54:28;99793.63;;;14.28;44.40
50368;BME280;36281;34.132;-118.018;2023-02-12T01:56:58;99801.53;;;14.23;45.25
50368;BME280;36281;34.132;-118.018;2023-02-12T01:59:30;99802.44;;;14.17;45.69
50368;BME280;36281;34.132;-118.018;2023-02-12T02:01:59;99809.31;;;14.13;45.93
50368;BME280;36281;34.132;-118.018;2023-02-12T02:04:31;99801.78;;;14.10;46.54
50368;BME280;36281;34.132;-118.018;2023-02-12T02:07:02;99805.16;;;14.05;46.86
50368;BME280;36281;34.132;-118.018;2023-02-12T02:09:35;99806.47;;;14.03;47.36
50368;BME280;36281;34.132;-118.018;2023-02-12T02:12:05;99798.69;;;14.01;48.01
50368;BME280;36281;34.132;-118.018;2023-02-12T02:14:56;99809.00;;;13.98;49.62
50368;BME280;36281;34.132;-118.018;2023-02-12T02:17:40;99805.75;;;13.95;49.96
50368;BME280;36281;34.132;-118.018;2023-02-12T02:23:35;99814.13;;;13.87;51.22
50368;BME280;36281;34.132;-118.018;2023-02-12T02:29:18;99815.75;;;13.77;52.84
50368;BME280;36281;34.132;-118.018;2023-02-12T02:31:53;99817.03;;;13.74;52.75
50368;BME280;36281;34.132;-118.018;2023-02-12T02:34:27;99815.88;;;13.70;53.75
50368;BME280;36281;34.132;-118.018;2023-02-12T02:37:02;99821.53;;;13.62;54.43
50368;BME280;36281;34.132;-118.018;2023-02-12T02:39:37;99815.91;;;13.58;54.40
50368;BME280;36281;34.132;-118.018;2023-02-12T02:42:13;99820.88;;;13.55;54.56
50368;BME280;36281;34.132;-118.018;2023-02-12T02:44:52;99829.53;;;13.50;54.67
50368;BME280;36281;34.132;-118.018;2023-02-12T02:47:25;99828.38;;;13.46;54.51
50368;BME280;36281;34.132;-118.018;2023-02-12T02:50:00;99830.13;;;13.40;54.46
50368;BME280;36281;34.132;-118.018;2023-02-12T02:52:34;99831.84;;;13.35;54.65
50368;BME280;36281;34.132;-118.018;2023-02-12T02:55:06;99826.97;;;13.32;54.73
50368;BME280;36281;34.132;-118.018;2023-02-12T02:57:38;99831.16;;;13.28;54.85
50368;BME280;36281;34.132;-118.018;2023-02-12T03:00:13;99839.81;;;13.23;55.03
50368;BME280;36281;34.132;-118.018;2023-02-12T03:02:49;99835.97;;;13.19;56.32
50368;BME280;36281;34.132;-118.018;2023-02-12T03:05:22;99832.94;;;13.15;56.81
50368;BME280;36281;34.132;-118.018;2023-02-12T03:07:57;99838.16;;;13.10;56.75
50368;BME280;36281;34.132;-118.018;2023-02-12T03:10:32;99832.69;;;13.05;57.15
50368;BME280;36281;34.132;-118.018;2023-02-12T03:13:07;99844.94;;;13.06;57.28
50368;BME280;36281;34.132;-118.018;2023-02-12T03:15:39;99853.41;;;13.03;57.59
50368;BME280;36281;34.132;-118.018;2023-02-12T03:18:16;99853.03;;;13.00;58.27
50368;BME280;36281;34.132;-118.018;2023-02-12T03:20:50;99851.28;;;12.93;57.96
50368;BME280;36281;34.132;-118.018;2023-02-12T03:23:24;99856.47;;;12.88;58.40
50368;BME280;36281;34.132;-118.018;2023-02-12T03:25:58;99859.22;;;12.82;59.10
50368;BME280;36281;34.132;-118.018;2023-02-12T03:28:31;99857.72;;;12.74;59.16
50368;BME280;36281;34.132;-118.018;2023-02-12T03:31:07;99863.94;;;12.68;59.75
50368;BME280;36281;34.132;-118.018;2023-02-12T03:33:45;99870.94;;;12.62;60.16
50368;BME280;36281;34.132;-118.018;2023-02-12T03:36:25;99877.13;;;12.56;60.78
50368;BME280;36281;34.132;-118.018;2023-02-12T03:38:57;99876.19;;;12.51;60.55
50368;BME280;36281;34.132;-118.018;2023-02-12T03:41:39;99885.06;;;12.45;60.91
50368;BME280;36281;34.132;-118.018;2023-02-12T03:44:17;99888.63;;;12.38;61.05
50368;BME280;36281;34.132;-118.018;2023-02-12T03:46:56;99886.81;;;12.32;61.33
50368;BME280;36281;34.132;-118.018;2023-02-12T03:49:31;99897.09;;;12.29;61.55
50368;BME280;36281;34.132;-118.018;2023-02-12T03:52:04;99894.06;;;12.25;61.21
50368;BME280;36281;34.132;-118.018;2023-02-12T03:54:33;99899.63;;;12.24;62.20
50368;BME280;36281;34.132;-118.018;2023-02-12T03:57:06;99909.63;;;12.22;62.55
50368;BME280;36281;34.132;-118.018;2023-02-12T03:59:38;99909.88;;;12.20;63.02
50368;BME280;36281;34.132;-118.018;2023-02-12T04:02:08;99908.81;;;12.21;63.14
50368;BME280;36281;34.132;-118.018;2023-02-12T04:04:39;99906.97;;;12.22;63.45
50368;BME280;36281;34.132;-118.018;2023-02-12T04:07:09;99907.78;;;12.22;63.55
50368;BME280;36281;34.132;-118.018;2023-02-12T04:09:38;99907.78;;;12.22;63.75
50368;BME280;36281;34.132;-118.018;2023-02-12T04:12:16;99906.97;;;12.22;63.33
50368;BME280;36281;34.132;-118.018;2023-02-12T04:14:53;99900.84;;;12.21;63.98
50368;BME280;36281;34.132;-118.018;2023-02-12T04:17:30;99906.97;;;12.22;64.06
50368;BME280;36281;34.132;-118.018;2023-02-12T04:20:10;99906.41;;;12.20;64.26
50368;BME280;36281;34.132;-118.018;2023-02-12T04:22:51;99911.91;;;12.18;64.36
50368;BME280;36281;34.132;-118.018;2023-02-12T04:25:33;99908.09;;;12.14;64.15
50368;BME280;36281;34.132;-118.018;2023-02-12T04:28:14;99914.78;;;12.16;64.41
50368;BME280;36281;34.132;-118.018;2023-02-12T04:30:56;99916.63;;;12.16;64.44
50368;BME280;36281;34.132;-118.018;2023-02-12T04:33:33;99917.69;;;12.15;64.58
50368;BME280;36281;34.132;-118.018;2023-02-12T04:36:09;99919.53;;;12.14;65.14
50368;BME280;36281;34.132;-118.018;2023-02-12T04:38:45;99921.13;;;12.15;64.82
50368;BME280;36281;34.132;-118.018;2023-02-12T04:41:15;99922.75;;;12.16;65.15
50368;BME280;36281;34.132;-118.018;2023-02-12T04:43:45;99927.03;;;12.18;65.51
50368;BME280;36281;34.132;-118.018;2023-02-12T04:46:14;99927.84;;;12.18;65.90
50368;BME280;36281;34.132;-118.018;2023-02-12T04:48:49;99931.09;;;12.20;66.03
50368;BME280;36281;34.132;-118.018;2023-02-12T04:51:21;99930.06;;;12.21;65.71
50368;BME280;36281;34.132;-118.018;2023-02-12T04:53:50;99926.16;;;12.24;65.98
50368;BME280;36281;34.132;-118.018;2023-02-12T04:56:19;99932.88;;;12.26;65.97
50368;BME280;36281;34.132;-118.018;2023-02-12T04:58:48;99929.16;;;12.27;65.94
50368;BME280;36281;34.132;-118.018;2023-02-12T05:01:17;99927.94;;;12.30;65.76
50368;BME280;36281;34.132;-118.018;2023-02-12T05:03:47;99933.00;;;12.31;66.18
50368;BME280;36281;34.132;-118.018;2023-02-12T05:06:15;99929.13;;;12.34;65.84
50368;BME280;36281;34.132;-118.018;2023-02-12T05:08:46;99937.91;;;12.34;65.65
50368;BME280;36281;34.132;-118.018;2023-02-12T05:11:15;99935.25;;;12.34;66.14
50368;BME280;36281;34.132;-118.018;2023-02-12T05:13:47;99935.81;;;12.36;66.46
50368;BME280;36281;34.132;-118.018;2023-02-12T05:16:17;99931.31;;;12.37;66.22
50368;BME280;36281;34.132;-118.018;2023-02-12T05:18:47;99937.44;;;12.37;65.45
50368;BME280;36281;34.132;-118.018;2023-02-12T05:21:16;99940.31;;;12.36;65.87
50368;BME280;36281;34.132;-118.018;2023-02-12T05:23:47;99935.81;;;12.36;66.03
50368;BME280;36281;34.132;-118.018;2023-02-12T05:26:18;99941.75;;;12.38;65.93
50368;BME280;36281;34.132;-118.018;2023-02-12T05:28:48;99940.69;;;12.39;65.73
50368;BME280;36281;34.132;-118.018;2023-02-12T05:31:18;99943.13;;;12.41;66.18
50368;BME280;36281;34.132;-118.018;2023-02-12T05:33:48;99943.34;;;12.39;66.30
50368;BME280;36281;34.132;-118.018;2023-02-12T05:36:19;99944.75;;;12.42;66.14
50368;BME280;36281;34.132;-118.018;2023-02-12T05:38:51;99941.03;;;12.43;66.48
50368;BME280;36281;34.132;-118.018;2023-02-12T05:41:22;99943.50;;;12.45;66.79
50368;BME280;36281;34.132;-118.018;2023-02-12T05:43:52;99940.03;;;12.44;66.65
50368;BME280;36281;34.132;-118.018;2023-02-12T05:46:21;99944.31;;;12.45;66.81
50368;BME280;36281;34.132;-118.018;2023-02-12T05:48:50;99941.66;;;12.45;66.32
50368;BME280;36281;34.132;-118.018;2023-02-12T05:51:21;99945.13;;;12.46;66.43
50368;BME280;36281;34.132;-118.018;2023-02-12T05:53:56;99939.00;;;12.45;66.64
50368;BME280;36281;34.132;-118.018;2023-02-12T05:56:27;99939.22;;;12.44;66.94
50368;BME280;36281;34.132;-118.018;2023-02-12T05:58:58;99929.63;;;12.42;66.55
50368;BME280;36281;34.132;-118.018;2023-02-12T06:01:31;99934.13;;;12.42;66.36
50368;BME280;36281;34.132;-118.018;2023-02-12T06:04:01;99928.00;;;12.41;66.58
50368;BME280;36281;34.132;-118.018;2023-02-12T06:06:31;99930.66;;;12.41;66.33
50368;BME280;36281;34.132;-118.018;2023-02-12T06:09:02;99920.03;;;12.41;66.50
50368;BME280;36281;34.132;-118.018;2023-02-12T06:11:31;99926.38;;;12.40;66.23
50368;BME280;36281;34.132;-118.018;2023-02-12T06:14:01;99926.38;;;12.40;66.20
50368;BME280;36281;34.132;-118.018;2023-02-12T06:16:31;99920.50;;;12.38;66.69
50368;BME280;36281;34.132;-118.018;2023-02-12T06:19:02;99923.16;;;12.38;66.66
50368;BME280;36281;34.132;-118.018;2023-02-12T06:21:32;99920.13;;;12.35;66.23
50368;BME280;36281;34.132;-118.018;2023-02-12T06:24:03;99920.34;;;12.33;66.17
50368;BME280;36281;34.132;-118.018;2023-02-12T06:26:32;99922.38;;;12.31;66.55
50368;BME280;36281;34.132;-118.018;2023-02-12T06:29:01;99921.59;;;12.31;66.25
50368;BME280;36281;34.132;-118.018;2023-02-12T06:31:31;99924.47;;;12.29;66.29
50368;BME280;36281;34.132;-118.018;2023-02-12T06:34:03;99918.56;;;12.27;66.04
50368;BME280;36281;34.132;-118.018;2023-02-12T06:36:33;99925.72;;;12.27;65.92
50368;BME280;36281;34.132;-118.018;2023-02-12T06:39:06;99932.28;;;12.24;66.37
50368;BME280;36281;34.132;-118.018;2023-02-12T06:41:35;99929.03;;;12.22;65.99
50368;BME280;36281;34.132;-118.018;2023-02-12T06:44:05;99926.03;;;12.19;66.43
50368;BME280;36281;34.132;-118.018;2023-02-12T06:46:34;99934.41;;;12.15;66.58
50368;BME280;36281;34.132;-118.018;2023-02-12T06:49:03;99933.22;;;12.11;66.31
50368;BME280;36281;34.132;-118.018;2023-02-12T06:51:32;99926.72;;;12.07;66.41
50368;BME280;36281;34.132;-118.018;2023-02-12T06:54:01;99928.19;;;12.03;66.59
50368;BME280;36281;34.132;-118.018;2023-02-12T06:56:32;99928.88;;;11.99;66.66
50368;BME280;36281;34.132;-118.018;2023-02-12T06:59:01;99929.72;;;11.93;66.82
50368;BME280;36281;34.132;-118.018;2023-02-12T07:01:30;99925.91;;;11.88;66.56
50368;BME280;36281;34.132;-118.018;2023-02-12T07:04:00;99928.19;;;11.85;66.56
50368;BME280;36281;34.132;-118.018;2023-02-12T07:06:30;99931.47;;;11.80;66.63
50368;BME280;36281;34.132;-118.018;2023-02-12T07:08:59;99927.84;;;11.75;66.59
50368;BME280;36281;34.132;-118.018;2023-02-12T07:11:32;99924.00;;;11.71;66.62
50368;BME280;36281;34.132;-118.018;2023-02-12T07:14:05;99924.88;;;11.64;66.66
50368;BME280;36281;34.132;-118.018;2023-02-12T07:16:34;99923.44;;;11.62;66.55
50368;BME280;36281;34.132;-118.018;2023-02-12T07:19:03;99920.41;;;11.58;66.98
50368;BME280;36281;34.132;-118.018;2023-02-12T07:21:32;99914.13;;;11.53;67.17
50368;BME280;36281;34.132;-118.018;2023-02-12T07:24:01;99919.88;;;11.50;67.12
50368;BME280;36281;34.132;-118.018;2023-02-12T07:26:32;99915.22;;;11.45;67.08
50368;BME280;36281;34.132;-118.018;2023-02-12T07:29:01;99917.72;;;11.40;67.51
50368;BME280;36281;34.132;-118.018;2023-02-12T07:31:30;99907.75;;;11.35;67.28
50368;BME280;36281;34.132;-118.018;2023-02-12T07:34:00;99910.81;;;11.32;67.48
50368;BME280;36281;34.132;-118.018;2023-02-12T07:36:30;99908.63;;;11.29;67.34
50368;BME280;36281;34.132;-118.018;2023-02-12T07:39:00;99911.91;;;11.25;67.34
50368;BME280;36281;34.132;-118.018;2023-02-12T07:41:31;99907.03;;;11.22;67.67
50368;BME280;36281;34.132;-118.018;2023-02-12T07:44:02;99899.72;;;11.17;67.71
50368;BME280;36281;34.132;-118.018;2023-02-12T07:46:35;99904.03;;;11.11;67.42
50368;BME280;36281;34.132;-118.018;2023-02-12T07:49:06;99901.22;;;11.06;67.37
50368;BME280;36281;34.132;-118.018;2023-02-12T07:51:36;99902.66;;;11.02;67.47
50368;BME280;36281;34.132;-118.018;2023-02-12T07:54:05;99905.94;;;10.98;67.92
50368;BME280;36281;34.132;-118.018;2023-02-12T07:56:37;99898.06;;;10.91;67.71
50368;BME280;36281;34.132;-118.018;2023-02-12T07:59:09;99895.81;;;10.88;67.96
50368;BME280;36281;34.132;-118.018;2023-02-12T08:01:40;99893.78;;;10.83;68.19
50368;BME280;36281;34.132;-118.018;2023-02-12T08:04:12;99892.63;;;10.79;68.46
50368;BME280;36281;34.132;-118.018;2023-02-12T08:06:43;99888.78;;;10.75;68.63
50368;BME280;36281;34.132;-118.018;2023-02-12T08:09:13;99888.38;;;10.72;68.74
50368;BME280;36281;34.132;-118.018;2023-02-12T08:11:44;99883.72;;;10.67;68.79
50368;BME280;36281;34.132;-118.018;2023-02-12T08:14:15;99876.38;;;10.63;68.65
50368;BME280;36281;34.132;-118.018;2023-02-12T08:16:46;99876.84;;;10.59;68.66
50368;BME280;36281;34.132;-118.018;2023-02-12T08:19:16;99878.47;;;10.54;68.64
50368;BME280;36281;34.132;-118.018;2023-02-12T08:21:52;99872.00;;;10.50;68.91
50368;BME280;36281;34.132;-118.018;2023-02-12T08:24:21;99878.72;;;10.46;68.87
50368;BME280;36281;34.132;-118.018;2023-02-12T08:26:52;99869.56;;;10.42;69.02
50368;BME280;36281;34.132;-118.018;2023-02-12T08:29:23;99869.16;;;10.38;69.22
50368;BME280;36281;34.132;-118.018;2023-02-12T08:31:55;99877.31;;;10.37;69.48
50368;BME280;36281;34.132;-118.018;2023-02-12T08:34:26;99880.38;;;10.33;69.54
50368;BME280;36281;34.132;-118.018;2023-02-12T08:36:56;99874.50;;;10.31;69.89
50368;BME280;36281;34.132;-118.018;2023-02-12T08:39:27;99881.22;;;10.27;70.07
50368;BME280;36281;34.132;-118.018;2023-02-12T08:41:58;99875.53;;;10.24;70.09
50368;BME280;36281;34.132;-118.018;2023-02-12T08:44:29;99879.59;;;10.20;69.89
50368;BME280;36281;34.132;-118.018;2023-02-12T08:46:58;99880.22;;;10.15;69.75
50368;BME280;36281;34.132;-118.018;2023-02-12T08:49:28;99878.00;;;10.12;69.67
50368;BME280;36281;34.132;-118.018;2023-02-12T08:51:58;99883.69;;;10.09;69.66
50368;BME280;36281;34.132;-118.018;2023-02-12T08:54:30;99877.00;;;10.06;69.51
50368;BME280;36281;34.132;-118.018;2023-02-12T08:57:02;99869.69;;;10.02;69.66
50368;BME280;36281;34.132;-118.018;2023-02-12T08:59:31;99869.09;;;10.00;69.93
50368;BME280;36281;34.132;-118.018;2023-02-12T09:02:00;99875.81;;;9.96;70.20
50368;BME280;36281;34.132;-118.018;2023-02-12T09:04:31;99869.28;;;9.92;69.98
50368;BME280;36281;34.132;-118.018;2023-02-12T09:07:01;99877.84;;;9.87;70.32
50368;BME280;36281;34.132;-118.018;2023-02-12T09:09:30;99874.78;;;9.83;70.07
50368;BME280;36281;34.132;-118.018;2023-02-12T09:12:01;99871.16;;;9.78;70.15
50368;BME280;36281;34.132;-118.018;2023-02-12T09:14:30;99868.94;;;9.75;70.52
50368;BME280;36281;34.132;-118.018;2023-02-12T09:16:59;99870.13;;;9.72;70.29
50368;BME280;36281;34.132;-118.018;2023-02-12T09:19:28;99867.31;;;9.67;70.36
50368;BME280;36281;34.132;-118.018;2023-02-12T09:21:57;99867.09;;;9.62;70.37
50368;BME280;36281;34.132;-118.018;2023-02-12T09:24:26;99862.44;;;9.57;70.64
50368;BME280;36281;34.132;-118.018;2023-02-12T09:26:55;99869.94;;;9.54;70.85
50368;BME280;36281;34.132;-118.018;2023-02-12T09:29:26;99873.03;;;9.51;71.28
50368;BME280;36281;34.132;-118.018;2023-02-12T09:31:55;99873.19;;;9.49;71.43
50368;BME280;36281;34.132;-118.018;2023-02-12T09:34:24;99874.84;;;9.44;71.44
50368;BME280;36281;34.132;-118.018;2023-02-12T09:36:53;99871.59;;;9.42;71.44
50368;BME280;36281;34.132;-118.018;2023-02-12T09:39:22;99877.28;;;9.39;71.62
50368;BME280;36281;34.132;-118.018;2023-02-12T09:42:13;99870.38;;;9.38;71.78
50368;BME280;36281;34.132;-118.018;2023-02-12T09:44:50;99867.31;;;9.34;71.90
50368;BME280;36281;34.132;-118.018;2023-02-12T09:47:26;99859.81;;;9.31;72.04
50368;BME280;36281;34.132;-118.018;2023-02-12T09:50:19;99865.28;;;9.29;72.24
50368;BME280;36281;34.132;-118.018;2023-02-12T09:52:53;99868.13;;;9.28;72.63
50368;BME280;36281;34.132;-118.018;2023-02-12T09:55:26;99872.59;;;9.27;72.86
50368;BME280;36281;34.132;-118.018;2023-02-12T09:57:57;99876.88;;;9.28;72.99
50368;BME280;36281;34.132;-118.018;2023-02-12T10:00:31;99868.75;;;9.30;73.44
50368;BME280;36281;34.132;-118.018;2023-02-12T10:03:02;99870.38;;;9.31;73.68
50368;BME280;36281;34.132;-118.018;2023-02-12T10:05:36;99864.88;;;9.32;73.46
50368;BME280;36281;34.132;-118.018;2023-02-12T10:08:30;99873.41;;;9.35;73.13
50368;BME280;36281;34.132;-118.018;2023-02-12T10:11:19;99866.91;;;9.37;73.27
50368;BME280;36281;34.132;-118.018;2023-02-12T10:13:56;99863.66;;;9.42;73.30
50368;BME280;36281;34.132;-118.018;2023-02-12T10:16:44;99865.69;;;9.46;73.65
50368;BME280;36281;34.132;-118.018;2023-02-12T10:19:23;99863.03;;;9.53;74.29
50368;BME280;36281;34.132;-118.018;2023-02-12T10:22:01;99859.59;;;9.52;74.25
50368;BME280;36281;34.132;-118.018;2023-02-12T10:27:30;99861.41;;;9.58;73.95
50368;BME280;36281;34.132;-118.018;2023-02-12T10:30:03;99853.88;;;9.62;73.94
50368;BME280;36281;34.132;-118.018;2023-02-12T10:32:44;99857.75;;;9.66;73.67
50368;BME280;36281;34.132;-118.018;2023-02-12T10:35:15;99854.69;;;9.69;73.52
50368;BME280;36281;34.132;-118.018;2023-02-12T10:37:49;99857.13;;;9.71;73.79
50368;BME280;36281;34.132;-118.018;2023-02-12T10:40:23;99856.91;;;9.72;73.97
50368;BME280;36281;34.132;-118.018;2023-02-12T10:42:56;99857.94;;;9.71;73.54
50368;BME280;36281;34.132;-118.018;2023-02-12T10:45:29;99847.38;;;9.71;73.22
50368;BME280;36281;34.132;-118.018;2023-02-12T10:48:09;99847.97;;;9.73;72.96
50368;BME280;36281;34.132;-118.018;2023-02-12T10:50:47;99838.00;;;9.75;73.06
50368;BME280;36281;34.132;-118.018;2023-02-12T10:53:21;99829.03;;;9.76;73.11
50368;BME280;36281;34.132;-118.018;2023-02-12T10:56:06;99833.31;;;9.77;73.08
50368;BME280;36281;34.132;-118.018;2023-02-12T10:58:39;99829.03;;;9.76;72.47
50368;BME280;36281;34.132;-118.018;2023-02-12T11:01:16;99826.00;;;9.73;72.33
50368;BME280;36281;34.132;-118.018;2023-02-12T11:03:49;99823.56;;;9.71;71.84
50368;BME280;36281;34.132;-118.018;2023-02-12T11:06:19;99821.13;;;9.70;71.78
50368;BME280;36281;34.132;-118.018;2023-02-12T11:08:50;99826.00;;;9.66;71.68
50368;BME280;36281;34.132;-118.018;2023-02-12T11:11:21;99830.09;;;9.62;71.80
50368;BME280;36281;34.132;-118.018;2023-02-12T11:13:55;99833.56;;;9.56;71.89
50368;BME280;36281;34.132;-118.018;2023-02-12T11:16:30;99827.06;;;9.52;71.94
50368;BME280;36281;34.132;-118.018;2023-02-12T11:19:02;99831.13;;;9.48;71.72
50368;BME280;36281;34.132;-118.018;2023-02-12T11:21:33;99830.72;;;9.44;72.18
50368;BME280;36281;34.132;-118.018;2023-02-12T11:24:25;99824.22;;;9.40;72.29
50368;BME280;36281;34.132;-118.018;2023-02-12T11:27:22;99825.03;;;9.34;72.26
50368;BME280;36281;34.132;-118.018;2023-02-12T11:30:15;99821.38;;;9.28;72.36
50368;BME280;36281;34.132;-118.018;2023-02-12T11:32:45;99824.63;;;9.24;71.85
50368;BME280;36281;34.132;-118.018;2023-02-12T11:35:20;99820.97;;;9.18;71.77
50368;BME280;36281;34.132;-118.018;2023-02-12T11:38:01;99825.84;;;9.15;72.06
50368;BME280;36281;34.132;-118.018;2023-02-12T11:40:31;99822.19;;;9.09;72.12
50368;BME280;36281;34.132;-118.018;2023-02-12T11:43:03;99823.81;;;9.03;72.28
50368;BME280;36281;34.132;-118.018;2023-02-12T11:45:35;99815.69;;;8.98;72.33
50368;BME280;36281;34.132;-118.018;2023-02-12T11:48:11;99815.25;;;8.95;72.78
50368;BME280;36281;34.132;-118.018;2023-02-12T11:50:48;99816.88;;;8.89;72.57
50368;BME280;36281;34.132;-118.018;2023-02-12T11:53:22;99811.41;;;8.84;72.81
50368;BME280;36281;34.132;-118.018;2023-02-12T11:55:54;99804.06;;;8.79;73.18
50368;BME280;36281;34.132;-118.018;2023-02-12T11:58:26;99810.59;;;8.77;73.18
50368;BME280;36281;34.132;-118.018;2023-02-12T12:01:02;99811.41;;;8.71;73.26
50368;BME280;36281;34.132;-118.018;2023-02-12T12:03:36;99817.28;;;8.66;73.11
50368;BME280;36281;34.132;-118.018;2023-02-12T12:06:22;99814.41;;;8.61;73.27
50368;BME280;36281;34.132;-118.018;2023-02-12T12:08:58;99809.91;;;8.55;73.35
50368;BME280;36281;34.132;-118.018;2023-02-12T12:11:35;99807.69;;;8.52;73.07
50368;BME280;36281;34.132;-118.018;2023-02-12T12:14:13;99817.22;;;8.46;72.88
50368;BME280;36281;34.132;-118.018;2023-02-12T12:16:50;99814.38;;;8.41;72.95
50368;BME280;36281;34.132;-118.018;2023-02-12T12:19:47;99818.19;;;8.39;72.96
50368;BME280;36281;34.132;-118.018;2023-02-12T12:22:42;99809.84;;;8.35;72.90
50368;BME280;36281;34.132;-118.018;2023-02-12T12:25:21;99811.44;;;8.29;72.73
50368;BME280;36281;34.132;-118.018;2023-02-12T12:27:57;99813.84;;;8.24;72.71
50368;BME280;36281;34.132;-118.018;2023-02-12T12:33:39;99805.13;;;8.17;73.17
50368;BME280;36281;34.132;-118.018;2023-02-12T12:36:35;99808.13;;;8.14;73.37
50368;BME280;36281;34.132;-118.018;2023-02-12T12:39:16;99806.09;;;8.10;73.10
50368;BME280;36281;34.132;-118.018;2023-02-12T12:42:07;99811.78;;;8.07;73.61
50368;BME280;36281;34.132;-118.018;2023-02-12T12:44:53;99812.97;;;8.04;73.58
50368;BME280;36281;34.132;-118.018;2023-02-12T12:47:30;99808.09;;;8.01;73.92
50368;BME280;36281;34.132;-118.018;2023-02-12T12:50:19;99807.69;;;7.97;74.34
50368;BME280;36281;34.132;-118.018;2023-02-12T12:53:00;99808.88;;;7.95;74.07
50368;BME280;36281;34.132;-118.018;2023-02-12T12:56:01;99805.00;;;7.91;74.62
50368;BME280;36281;34.132;-118.018;2023-02-12T12:58:42;99806.22;;;7.88;74.91
50368;BME280;36281;34.132;-118.018;2023-02-12T13:01:31;99802.16;;;7.86;74.32
50368;BME280;36281;34.132;-118.018;2023-02-12T13:07:07;99803.72;;;7.80;74.92
50368;BME280;36281;34.132;-118.018;2023-02-12T13:09:54;99801.50;;;7.77;74.81
50368;BME280;36281;34.132;-118.018;2023-02-12T13:12:51;99801.06;;;7.73;74.72
50368;BME280;36281;34.132;-118.018;2023-02-12T13:15:30;99799.44;;;7.72;75.04
50368;BME280;36281;34.132;-118.018;2023-02-12T13:18:08;99799.81;;;7.69;75.45
50368;BME280;36281;34.132;-118.018;2023-02-12T13:20:46;99806.91;;;7.69;74.97